Time;durP1;ratioP1;P1;durP2;ratioP2;P2;SDS_P1;SDS_P2;PMS_P1;PMS_P2;Temp;Humidity;BMP_temperature;BMP_pressure;BME280_temperature;BME280_humidity;BME280_pressure;Samples;Min_cycle;Max_cycle;Signal;HPM_P1;HPM_P2
2022/11/27 00:00:42;;;;;;;1.17;0.25;;;;;;;10.61;84.33;99844.66;5070212;28;20049;-62
2022/11/27 00:03:08;;;;;;;1.63;0.40;;;;;;;10.65;83.59;99845.53;5070750;28;20095;-61
2022/11/27 00:05:35;;;;;;;1.92;1.80;;;;;;;10.68;82.86;99845.50;5070952;28;21577;-63
2022/11/27 00:08:02;;;;;;;0.75;0.32;;;;;;;10.69;83.36;99836.88;5069341;28;20088;-63
2022/11/27 00:10:29;;;;;;;0.90;0.30;;;;;;;10.64;83.73;99841.22;5073441;28;20152;-63
2022/11/27 00:12:55;;;;;;;0.35;0.30;;;;;;;10.73;82.58;99833.38;5076318;28;20063;-62
2022/11/27 00:15:22;;;;;;;0.70;0.40;;;;;;;10.63;84.17;99827.41;5075087;28;20131;-62
2022/11/27 00:17:48;;;;;;;0.45;0.32;;;;;;;10.67;83.94;99833.41;5072956;28;20481;-62
2022/11/27 00:20:15;;;;;;;0.80;0.30;;;;;;;10.66;83.69;99827.38;5080155;28;20068;-62
2022/11/27 00:22:41;;;;;;;1.27;0.20;;;;;;;10.68;83.55;99837.75;5077865;28;20049;-63
2022/11/27 00:25:08;;;;;;;0.73;0.30;;;;;;;10.70;83.85;99823.03;5074698;28;20495;-62
2022/11/27 00:27:35;;;;;;;0.65;0.45;;;;;;;10.71;82.98;99824.75;5075335;28;20079;-63
2022/11/27 00:30:01;;;;;;;1.60;0.60;;;;;;;10.69;84.05;99831.69;5072587;28;20389;-62
2022/11/27 00:32:28;;;;;;;0.55;0.52;;;;;;;10.65;83.98;99817.03;5080717;28;20044;-62
2022/11/27 00:34:54;;;;;;;0.63;0.30;;;;;;;10.71;83.32;99824.75;5065758;28;20120;-62
2022/11/27 00:37:23;;;;;;;0.40;0.40;;;;;;;10.67;83.19;99820.47;5057320;28;20144;-62
2022/11/27 00:39:50;;;;;;;0.70;0.30;;;;;;;10.71;83.08;99821.31;5055934;28;20077;-62
2022/11/27 00:42:17;;;;;;;1.35;0.40;;;;;;;10.72;84.03;99820.44;5057055;28;20161;-63
2022/11/27 00:44:43;;;;;;;0.50;0.45;;;;;;;10.68;83.74;99829.97;5053513;28;20063;-62
2022/11/27 00:47:10;;;;;;;0.95;0.40;;;;;;;10.70;83.64;99828.22;5055750;28;20217;-62
2022/11/27 00:49:36;;;;;;;0.30;0.20;;;;;;;10.73;84.03;99830.78;5054461;28;20068;-62
2022/11/27 00:52:03;;;;;;;0.75;0.32;;;;;;;10.78;83.74;99830.75;5055187;28;20036;-63
2022/11/27 00:54:30;;;;;;;0.77;0.35;;;;;;;10.71;83.90;99829.94;5053911;28;20172;-62
2022/11/27 00:56:56;;;;;;;0.60;0.40;;;;;;;10.75;83.83;99842.00;5053799;28;20067;-62
2022/11/27 00:59:23;;;;;;;1.55;0.60;;;;;;;10.79;84.07;99830.75;5050158;28;20094;-62
2022/11/27 01:01:49;;;;;;;1.35;0.43;;;;;;;10.84;83.85;99830.69;5059970;28;20096;-62
2022/11/27 01:04:16;;;;;;;0.55;0.30;;;;;;;10.80;84.12;99809.16;5055854;28;20084;-62
2022/11/27 01:06:44;;;;;;;1.48;0.50;;;;;;;10.80;84.12;99809.16;5059404;28;20110;-61
2022/11/27 01:09:12;;;;;;;1.48;0.40;;;;;;;10.84;84.33;99815.16;5054298;28;20119;-62
2022/11/27 01:11:40;;;;;;;0.45;0.45;;;;;;;10.76;83.64;99815.22;5061900;28;20044;-62
2022/11/27 01:14:11;;;;;;;0.38;0.20;;;;;;;10.75;83.72;99815.25;5056472;28;20086;-61
2022/11/27 01:16:38;;;;;;;0.63;0.60;;;;;;;10.78;83.97;99799.69;5060149;28;20052;-62
2022/11/27 01:19:10;;;;;;;1.42;0.50;;;;;;;10.78;84.38;99805.69;5061340;28;20041;-61
2022/11/27 01:21:39;;;;;;;0.70;0.30;;;;;;;10.85;83.63;99801.34;5061102;28;20687;-62
2022/11/27 01:24:11;;;;;;;1.00;0.45;;;;;;;10.77;85.04;99803.13;5061425;28;20072;-61
2022/11/27 01:26:40;;;;;;;0.70;0.40;;;;;;;10.84;84.54;99809.13;5057455;28;20472;-63
2022/11/27 01:29:09;;;;;;;4.53;0.30;;;;;;;10.89;83.23;99812.53;5051883;28;20048;-61
2022/11/27 01:31:37;;;;;;;0.73;0.20;;;;;;;10.90;83.34;99814.25;5054437;28;20044;-61
2022/11/27 01:34:11;;;;;;;0.57;0.30;;;;;;;10.90;84.72;99798.72;5054613;28;20044;-61
2022/11/27 01:36:40;;;;;;;0.60;0.30;;;;;;;10.89;84.59;99792.69;5053161;28;20068;-61
2022/11/27 01:39:15;;;;;;;0.75;0.50;;;;;;;10.89;83.60;99797.00;5054025;28;20044;-62
2022/11/27 01:41:45;;;;;;;0.88;0.30;;;;;;;10.86;84.22;99786.66;5054302;28;20144;-62
2022/11/27 01:47:15;;;;;;;1.02;0.30;;;;;;;10.93;84.43;99798.69;5054538;28;20373;-62
2022/11/27 01:49:47;;;;;;;0.60;0.52;;;;;;;10.90;83.50;99788.34;5000515;28;20566;-61
2022/11/27 01:52:28;;;;;;;1.00;0.77;;;;;;;10.87;83.83;99778.88;5005698;28;20091;-62
2022/11/27 01:55:03;;;;;;;0.88;0.32;;;;;;;10.91;83.70;99797.84;5005477;28;20050;-61
2022/11/27 01:57:35;;;;;;;0.98;0.50;;;;;;;10.98;84.47;99817.63;4996621;28;20138;-61
2022/11/27 02:00:04;;;;;;;1.40;0.57;;;;;;;10.97;83.41;99804.72;5005972;28;20524;-61
2022/11/27 02:02:31;;;;;;;1.33;1.23;;;;;;;10.95;84.71;99791.78;4999314;28;20092;-61
2022/11/27 02:04:57;;;;;;;1.13;0.90;;;;;;;10.95;84.20;99794.38;5000497;28;20037;-61
2022/11/27 02:07:24;;;;;;;0.70;0.60;;;;;;;10.98;83.75;99802.09;5001766;28;20355;-62
2022/11/27 02:09:51;;;;;;;1.98;0.52;;;;;;;11.03;84.19;99805.53;5006646;28;20041;-61
2022/11/27 02:17:50;;;;;;;1.25;1.05;;;;;;;11.33;82.81;99805.25;5043351;28;20402;-62
2022/11/27 02:20:47;;;;;;;1.00;0.55;;;;;;;11.14;84.19;99801.94;5016992;28;20050;-60
2022/11/27 02:37:12;;;;;;;3.75;0.90;;;;;;;11.14;83.61;99776.03;5022129;27;20411;-60
2022/11/27 02:39:55;;;;;;;1.05;0.63;;;;;;;11.13;83.89;99784.69;5012946;28;20092;-61
2022/11/27 02:42:25;;;;;;;1.20;0.90;;;;;;;11.11;84.13;99786.47;5031265;28;20091;-62
2022/11/27 02:44:56;;;;;;;;;;;;;;;11.05;84.35;99783.03;5036197;28;20144;-61
2022/11/27 02:47:23;;;;;;;2.40;0.77;;;;;;;11.16;84.44;99789.84;5039422;28;19967;-61
2022/11/27 02:49:51;;;;;;;1.67;1.42;;;;;;;11.19;84.70;99790.66;5038409;28;20085;-60
2022/11/27 02:52:18;;;;;;;1.63;1.52;;;;;;;11.19;83.48;99800.19;5039626;28;20128;-60
2022/11/27 02:54:48;;;;;;;1.88;1.10;;;;;;;11.23;84.13;99791.53;5035271;28;20144;-61
2022/11/27 02:57:18;;;;;;;1.98;0.70;;;;;;;11.25;83.82;99794.09;5040231;28;20080;-61
2022/11/27 02:59:45;;;;;;;2.03;1.35;;;;;;;11.27;83.75;99797.53;5035846;28;20077;-61
2022/11/27 03:02:19;;;;;;;3.72;0.47;;;;;;;11.27;83.96;99800.97;5038726;28;20045;-61
2022/11/27 03:04:51;;;;;;;1.45;1.17;;;;;;;11.32;83.34;99806.97;5036702;28;20052;-60
2022/11/27 03:07:29;;;;;;;1.42;1.02;;;;;;;11.29;83.90;99812.19;5036201;28;20099;-60
2022/11/27 03:10:02;;;;;;;2.83;1.10;;;;;;;11.31;84.54;99810.44;5035707;28;20056;-61
2022/11/27 03:12:28;;;;;;;1.20;0.82;;;;;;;11.32;82.99;99799.19;5037173;28;20128;-61
2022/11/27 03:14:55;;;;;;;2.10;1.75;;;;;;;11.31;83.77;99796.63;5037232;28;20038;-61
2022/11/27 03:20:14;;;;;;;2.50;1.02;;;;;;;11.30;83.82;99793.19;5078463;27;20394;-60
2022/11/27 03:22:42;;;;;;;1.02;0.52;;;;;;;11.35;83.04;99785.34;5039410;28;20056;-61
2022/11/27 03:25:08;;;;;;;2.00;0.68;;;;;;;11.34;83.61;99772.41;5057826;28;20079;-61
2022/11/27 03:27:42;;;;;;;1.67;0.70;;;;;;;11.36;84.02;99786.22;5043693;28;20167;-61
2022/11/27 03:30:10;;;;;;;2.08;0.80;;;;;;;11.39;83.87;99791.38;5035392;28;20045;-61
2022/11/27 03:32:37;;;;;;;1.10;0.50;;;;;;;11.39;84.40;99791.38;5034049;28;20049;-61
2022/11/27 03:35:08;;;;;;;5.35;1.02;;;;;;;11.43;84.16;99790.47;5036264;28;20456;-61
2022/11/27 03:37:35;;;;;;;3.20;0.80;;;;;;;11.44;84.18;99784.38;5034869;28;20076;-61
2022/11/27 03:40:03;;;;;;;3.53;0.90;;;;;;;11.46;84.37;99790.44;5056189;28;20099;-61
2022/11/27 03:42:45;;;;;;;5.75;1.08;;;;;;;11.47;84.44;99781.75;5053465;28;20053;-60
2022/11/27 03:45:26;;;;;;;2.50;0.90;;;;;;;11.51;83.24;99785.19;5057016;28;20099;-60
2022/11/27 03:50:43;;;;;;;3.05;0.95;;;;;;;11.56;83.22;99786.84;5037331;28;20403;-60
2022/11/27 03:53:36;;;;;;;2.67;1.00;;;;;;;11.54;84.00;99791.22;5001710;28;20096;-61
2022/11/27 03:58:53;;;;;;;2.45;1.52;;;;;;;11.62;83.06;99808.44;5038963;28;20401;-61
2022/11/27 04:01:23;;;;;;;3.55;2.83;;;;;;;11.67;83.80;99807.50;4990513;28;20045;-60
2022/11/27 04:03:50;;;;;;;4.22;2.95;;;;;;;11.68;83.97;99804.00;5008315;28;20062;-60
2022/11/27 04:06:16;;;;;;;3.53;2.05;;;;;;;11.70;84.37;99806.59;5014299;28;20046;-60
2022/11/27 04:08:45;;;;;;;7.50;1.88;;;;;;;11.72;83.91;99799.63;5019538;28;20042;-60
2022/11/27 04:11:12;;;;;;;4.85;1.90;;;;;;;11.72;83.53;99798.81;5012882;28;20058;-61
2022/11/27 04:13:39;;;;;;;5.03;2.15;;;;;;;11.73;84.12;99798.78;5016975;28;20632;-60
2022/11/27 04:16:06;;;;;;;5.32;2.17;;;;;;;11.71;84.10;99800.53;5015276;28;20046;-61
2022/11/27 04:18:33;;;;;;;3.80;2.30;;;;;;;11.77;84.49;99797.88;5018909;28;20136;-61
2022/11/27 04:20:59;;;;;;;5.13;2.10;;;;;;;11.78;83.19;99799.56;5018618;28;20069;-60
2022/11/27 04:23:26;;;;;;;5.80;2.53;;;;;;;11.79;84.35;99801.28;5017087;28;20072;-61
2022/11/27 04:25:53;;;;;;;4.15;2.78;;;;;;;11.78;84.41;99794.38;5013144;28;20144;-60
2022/11/27 04:28:19;;;;;;;4.43;2.30;;;;;;;11.81;83.05;99789.16;5016335;28;20052;-60
2022/11/27 04:30:51;;;;;;;3.63;3.30;;;;;;;11.82;84.05;99803.84;5018595;28;20050;-60
2022/11/27 04:33:18;;;;;;;5.47;2.55;;;;;;;11.82;83.38;99811.63;5013727;28;20104;-60
2022/11/27 04:35:45;;;;;;;4.53;2.45;;;;;;;11.86;83.97;99811.59;5016299;28;20081;-61
2022/11/27 04:38:11;;;;;;;6.50;2.00;;;;;;;11.86;83.84;99809.00;5015018;28;20227;-60
2022/11/27 04:40:38;;;;;;;2.70;1.80;;;;;;;11.86;83.36;99804.69;5006587;28;20138;-60
2022/11/27 04:43:04;;;;;;;4.28;2.15;;;;;;;11.87;83.84;99811.59;5014645;28;20048;-60
2022/11/27 04:45:31;;;;;;;4.18;1.77;;;;;;;11.87;83.53;99805.53;5014880;28;20050;-60
2022/11/27 04:47:58;;;;;;;3.50;1.38;;;;;;;11.89;83.24;99796.00;5009784;28;20081;-61
2022/11/27 04:50:24;;;;;;;2.38;1.73;;;;;;;11.89;83.87;99821.97;5017360;28;20064;-61
2022/11/27 04:52:51;;;;;;;3.58;1.77;;;;;;;11.89;82.51;99827.16;5009038;28;20149;-60
2022/11/27 04:55:17;;;;;;;5.32;1.63;;;;;;;11.88;82.80;99820.22;5010760;28;20108;-60
2022/11/27 04:57:44;;;;;;;5.55;2.03;;;;;;;11.90;82.67;99823.66;5014331;28;20072;-60
2022/11/27 05:00:11;;;;;;;4.03;1.98;;;;;;;11.91;83.69;99823.66;5015360;28;20070;-61
2022/11/27 05:02:38;;;;;;;2.85;2.38;;;;;;;11.91;82.79;99830.56;5016977;28;20086;-60
2022/11/27 05:05:05;;;;;;;4.85;1.83;;;;;;;11.92;82.70;99837.50;5013389;28;20073;-60
2022/11/27 05:07:32;;;;;;;6.57;0.93;;;;;;;11.94;82.97;99835.72;5019896;28;20452;-61
2022/11/27 05:09:59;;;;;;;8.07;2.25;;;;;;;11.95;83.69;99834.84;5000199;28;20053;-61
2022/11/27 05:12:25;;;;;;;5.20;1.15;;;;;;;11.96;82.73;99846.97;5004689;28;22601;-60
2022/11/27 05:14:52;;;;;;;4.03;1.55;;;;;;;11.96;83.89;99844.38;5000090;28;20053;-61
2022/11/27 05:17:18;;;;;;;6.95;1.88;;;;;;;11.97;83.48;99846.09;5000133;28;20046;-61
2022/11/27 05:19:45;;;;;;;12.65;2.03;;;;;;;11.97;83.30;99838.28;5003878;28;20058;-60
2022/11/27 05:22:12;;;;;;;3.10;1.92;;;;;;;11.98;82.91;99837.41;5005043;28;20451;-60
2022/11/27 05:24:38;;;;;;;7.20;0.70;;;;;;;11.99;83.18;99836.53;5002643;28;21743;-61
2022/11/27 05:27:05;;;;;;;5.10;1.60;;;;;;;11.99;82.62;99833.94;4996847;28;20088;-60
2022/11/27 05:29:32;;;;;;;5.13;1.65;;;;;;;11.99;82.35;99843.47;5002812;28;20196;-61
2022/11/27 05:31:58;;;;;;;6.32;2.45;;;;;;;11.98;83.17;99831.34;5002255;28;20080;-60
2022/11/27 05:34:25;;;;;;;8.57;2.20;;;;;;;11.98;83.47;99816.66;5001954;28;20132;-60
2022/11/27 05:36:52;;;;;;;7.97;1.90;;;;;;;11.97;82.52;99809.75;5005400;28;20577;-61
2022/11/27 05:39:18;;;;;;;5.72;2.30;;;;;;;11.97;82.99;99809.75;5005541;28;20129;-61
2022/11/27 05:41:45;;;;;;;7.32;2.42;;;;;;;11.95;83.40;99817.53;5003277;28;20081;-60
2022/11/27 05:44:13;;;;;;;11.52;1.63;;;;;;;11.96;83.34;99813.22;5002944;28;20463;-60
2022/11/27 05:46:42;;;;;;;8.20;1.88;;;;;;;11.94;82.16;99812.38;5002124;28;20062;-61
2022/11/27 05:49:14;;;;;;;8.77;2.45;;;;;;;11.92;82.96;99811.53;5003437;28;20046;-61
2022/11/27 05:51:42;;;;;;;3.13;1.63;;;;;;;11.92;83.00;99811.53;5001675;28;20096;-61
2022/11/27 05:54:16;;;;;;;6.35;2.00;;;;;;;11.91;82.47;99815.00;4999497;28;20052;-61
2022/11/27 05:56:42;;;;;;;6.78;2.42;;;;;;;11.89;82.51;99821.97;5003778;28;20074;-60
2022/11/27 05:59:09;;;;;;;9.13;1.70;;;;;;;11.89;82.76;99829.75;5003113;28;20049;-61
2022/11/27 06:01:36;;;;;;;12.23;2.20;;;;;;;11.89;82.73;99837.53;4999267;28;20050;-60
2022/11/27 06:04:03;;;;;;;9.15;2.08;;;;;;;11.89;82.39;99830.59;4999926;28;20050;-61
2022/11/27 06:06:30;;;;;;;10.98;1.85;;;;;;;11.90;83.23;99828.84;5001857;28;20159;-61
2022/11/27 06:08:56;;;;;;;13.98;2.30;;;;;;;11.89;82.69;99834.94;5002712;28;20104;-61
2022/11/27 06:11:23;;;;;;;9.45;3.30;;;;;;;11.88;82.58;99831.47;5003649;28;20137;-60
2022/11/27 06:13:50;;;;;;;7.15;2.40;;;;;;;11.89;82.06;99837.53;4999435;28;20564;-61
2022/11/27 06:16:19;;;;;;;10.35;1.98;;;;;;;11.88;83.36;99821.09;5003281;28;20049;-61
2022/11/27 06:18:49;;;;;;;9.77;2.58;;;;;;;11.88;82.60;99815.03;5003284;28;20057;-61
2022/11/27 06:21:16;;;;;;;9.13;1.92;;;;;;;11.86;82.04;99825.47;4996386;28;20097;-61
2022/11/27 06:23:43;;;;;;;9.02;1.60;;;;;;;11.82;82.02;99816.81;5002343;28;20137;-60
2022/11/27 06:26:15;;;;;;;7.03;1.30;;;;;;;11.81;82.86;99830.69;4998951;28;20141;-60
2022/11/27 06:28:42;;;;;;;9.57;2.22;;;;;;;11.80;83.42;99828.97;4996251;28;20132;-61
2022/11/27 06:31:12;;;;;;;10.57;2.50;;;;;;;11.80;82.98;99839.34;4996386;28;20058;-60
2022/11/27 06:33:45;;;;;;;6.68;1.92;;;;;;;11.80;83.17;99849.75;5001545;28;20038;-60
2022/11/27 06:36:12;;;;;;;11.80;1.80;;;;;;;11.80;83.45;99844.53;5000629;28;20054;-60
2022/11/27 06:38:38;;;;;;;8.27;1.60;;;;;;;11.82;82.18;99842.78;4995084;28;20077;-60
2022/11/27 06:41:09;;;;;;;8.65;2.05;;;;;;;11.83;82.31;99834.09;4995169;28;20064;-61
2022/11/27 06:43:36;;;;;;;8.60;1.85;;;;;;;11.85;83.15;99836.69;4995540;28;20058;-60
2022/11/27 06:46:05;;;;;;;9.45;2.10;;;;;;;11.85;82.29;99825.47;4997103;28;20069;-60
2022/11/27 06:48:33;;;;;;;9.88;2.17;;;;;;;11.85;82.42;99825.47;4996947;28;20057;-60
2022/11/27 06:51:02;;;;;;;10.35;3.13;;;;;;;11.83;82.57;99821.13;4991254;28;20045;-61
2022/11/27 06:53:29;;;;;;;15.10;2.55;;;;;;;11.81;83.02;99819.44;4994025;28;20225;-60
2022/11/27 06:55:56;;;;;;;6.00;1.80;;;;;;;11.79;82.16;99827.25;5001046;28;20073;-60
2022/11/27 06:58:23;;;;;;;11.10;1.85;;;;;;;11.79;83.06;99845.41;5001719;28;20088;-60
2022/11/27 07:00:58;;;;;;;10.10;2.60;;;;;;;11.78;83.26;99846.28;4993288;28;20573;-61
2022/11/27 07:03:24;;;;;;;9.60;1.92;;;;;;;11.76;82.03;99853.22;4994596;28;20050;-61
2022/11/27 07:05:51;;;;;;;10.57;1.95;;;;;;;11.77;82.57;99848.91;4995501;28;20049;-60
2022/11/27 07:08:19;;;;;;;11.48;1.85;;;;;;;11.77;81.71;99839.38;4998260;28;20073;-60
2022/11/27 07:10:45;;;;;;;8.52;2.05;;;;;;;11.77;82.25;99836.78;4996224;28;20133;-61
2022/11/27 07:13:12;;;;;;;14.95;1.30;;;;;;;11.79;82.25;99832.44;5002684;28;20597;-61
2022/11/27 07:15:38;;;;;;;11.75;1.63;;;;;;;11.79;81.87;99840.22;5005278;28;20049;-61
2022/11/27 07:18:05;;;;;;;10.90;2.83;;;;;;;11.79;81.96;99837.63;4991609;28;20553;-60
2022/11/27 07:20:31;;;;;;;13.45;1.63;;;;;;;11.80;82.79;99834.16;5000984;28;20050;-61
2022/11/27 07:22:58;;;;;;;13.18;2.03;;;;;;;11.79;82.06;99842.81;5000946;28;20069;-61
2022/11/27 07:25:25;;;;;;;14.27;2.03;;;;;;;11.79;81.91;99837.63;5005245;28;20041;-60
2022/11/27 07:27:51;;;;;;;10.50;2.40;;;;;;;11.79;81.81;99832.44;4996264;28;20065;-61
2022/11/27 07:30:18;;;;;;;9.95;2.63;;;;;;;11.79;82.20;99839.38;4999029;28;20077;-61
2022/11/27 07:32:45;;;;;;;13.05;2.47;;;;;;;11.77;82.08;99838.50;4999645;28;20042;-61
2022/11/27 07:35:11;;;;;;;12.98;2.42;;;;;;;11.77;81.89;99847.16;4997031;28;20141;-60
2022/11/27 07:37:38;;;;;;;13.18;3.25;;;;;;;11.76;82.18;99842.84;5001992;28;20061;-60
2022/11/27 07:40:05;;;;;;;13.95;1.67;;;;;;;11.74;82.44;99844.59;4996997;28;20077;-60
2022/11/27 07:42:32;;;;;;;11.32;2.22;;;;;;;11.74;81.93;99849.78;5000822;28;20061;-60
2022/11/27 07:45:06;;;;;;;14.88;2.20;;;;;;;11.74;82.51;99852.38;5002369;28;20042;-59
2022/11/27 07:47:32;;;;;;;11.55;2.25;;;;;;;11.73;81.64;99842.03;5000874;28;20049;-60
2022/11/27 07:49:59;;;;;;;16.65;3.03;;;;;;;11.73;82.78;99855.88;4996443;28;20109;-61
2022/11/27 07:52:26;;;;;;;7.03;2.22;;;;;;;11.71;81.30;99865.38;4996626;28;20057;-61
2022/11/27 07:54:53;;;;;;;12.80;2.35;;;;;;;11.70;81.68;99879.25;5003235;28;20101;-60
2022/11/27 07:57:19;;;;;;;22.23;3.60;;;;;;;11.70;82.18;99871.47;5001533;28;20108;-61
2022/11/27 07:59:46;;;;;;;18.92;3.13;;;;;;;11.71;81.99;99855.00;4999652;28;20042;-61
2022/11/27 08:02:14;;;;;;;21.05;6.75;;;;;;;11.72;81.84;99850.69;5001365;28;20153;-61
2022/11/27 08:04:41;;;;;;;25.60;4.53;;;;;;;11.70;82.14;99863.69;4994522;28;20050;-58
2022/11/27 08:07:08;;;;;;;10.82;1.38;;;;;;;11.68;81.21;99845.53;4994101;28;20624;-61
2022/11/27 08:09:36;;;;;;;12.82;2.45;;;;;;;11.68;81.59;99848.13;5001673;28;20046;-61
2022/11/27 08:12:06;;;;;;;15.48;2.58;;;;;;;11.68;81.50;99852.44;5000885;28;20074;-61
2022/11/27 08:14:32;;;;;;;16.00;2.65;;;;;;;11.67;82.59;99837.75;4993166;28;20050;-60
2022/11/27 08:16:59;;;;;;;9.63;2.22;;;;;;;11.67;82.76;99858.50;4998431;28;20125;-60
2022/11/27 08:19:26;;;;;;;10.50;2.35;;;;;;;11.68;81.76;99865.41;4997852;28;20085;-61
2022/11/27 08:21:52;;;;;;;8.05;1.90;;;;;;;11.70;81.82;99879.25;5002683;28;20477;-61
2022/11/27 08:24:19;;;;;;;11.32;2.15;;;;;;;11.70;82.15;99879.25;5003278;28;20192;-60
2022/11/27 08:26:45;;;;;;;10.27;2.72;;;;;;;11.73;82.20;99893.91;4997999;28;20069;-61
2022/11/27 08:29:12;;;;;;;20.08;3.25;;;;;;;11.74;81.28;99880.94;5001278;28;20116;-61
2022/11/27 08:31:38;;;;;;;14.57;1.88;;;;;;;11.75;82.30;99874.84;5002403;28;20405;-60
2022/11/27 08:34:05;;;;;;;14.20;2.40;;;;;;;11.76;81.33;99879.16;5003093;28;20042;-61
2022/11/27 08:36:32;;;;;;;15.70;3.00;;;;;;;11.77;81.53;99865.34;5001082;28;20121;-61
2022/11/27 08:38:59;;;;;;;13.93;3.00;;;;;;;11.79;81.68;99867.91;5000873;28;20104;-61
2022/11/27 08:41:25;;;;;;;29.70;5.13;;;;;;;11.80;81.12;99860.13;4998941;28;20061;-60
2022/11/27 08:43:52;;;;;;;16.00;2.63;;;;;;;11.81;82.45;99855.75;5000411;28;20057;-61
2022/11/27 08:46:19;;;;;;;9.45;2.30;;;;;;;11.81;82.04;99856.63;5003987;28;20046;-61
2022/11/27 08:48:45;;;;;;;11.68;2.85;;;;;;;11.81;82.20;99858.34;5000021;28;20045;-61
2022/11/27 08:51:14;;;;;;;22.80;3.83;;;;;;;11.81;81.93;99864.41;5002139;28;20575;-60
2022/11/27 08:53:43;;;;;;;16.10;3.50;;;;;;;11.80;81.51;99865.31;5005164;28;20046;-61
2022/11/27 08:56:16;;;;;;;14.63;2.10;;;;;;;11.79;82.11;99860.97;5004012;28;20096;-60
2022/11/27 08:58:44;;;;;;;15.38;2.40;;;;;;;11.79;82.23;99860.97;5007489;28;20493;-61
2022/11/27 09:01:15;;;;;;;12.63;3.13;;;;;;;11.79;82.75;99854.94;5000476;28;20047;-60
2022/11/27 09:03:42;;;;;;;18.45;2.80;;;;;;;11.79;82.19;99871.34;5007029;28;20058;-61
2022/11/27 09:06:10;;;;;;;11.35;1.95;;;;;;;11.79;82.38;99881.72;5006599;28;20194;-61
2022/11/27 09:08:38;;;;;;;10.73;2.55;;;;;;;11.79;81.30;99884.31;4998715;28;20074;-61
2022/11/27 09:11:06;;;;;;;15.07;2.80;;;;;;;11.79;82.05;99883.47;5000683;28;20133;-60
2022/11/27 09:13:35;;;;;;;25.30;3.38;;;;;;;11.78;82.24;99877.41;4999893;28;20064;-61
2022/11/27 09:16:04;;;;;;;17.20;3.05;;;;;;;11.77;82.05;99862.75;5003764;28;20052;-61
2022/11/27 09:18:31;;;;;;;17.50;2.45;;;;;;;11.78;81.37;99854.06;5001360;28;20046;-61
2022/11/27 09:21:00;;;;;;;18.17;3.10;;;;;;;11.77;81.37;99860.16;5001367;28;20077;-60
2022/11/27 09:23:28;;;;;;;16.17;3.35;;;;;;;11.78;82.35;99850.59;5001666;28;20038;-61
2022/11/27 09:25:59;;;;;;;17.30;2.95;;;;;;;11.78;81.73;99841.09;5001418;28;20081;-61
2022/11/27 09:28:26;;;;;;;10.77;2.22;;;;;;;11.77;82.30;99834.19;5002931;28;20141;-60
2022/11/27 09:30:59;;;;;;;17.52;4.75;;;;;;;11.78;81.91;99822.94;4992251;28;20042;-60
2022/11/27 09:33:28;;;;;;;18.83;2.40;;;;;;;11.77;81.89;99823.81;4998597;28;20468;-61
2022/11/27 09:35:55;;;;;;;18.73;1.75;;;;;;;11.78;82.45;99828.13;5001341;28;20594;-60
2022/11/27 09:38:22;;;;;;;15.88;2.75;;;;;;;11.77;81.24;99823.81;4995608;28;20117;-61
2022/11/27 09:40:52;;;;;;;18.00;2.45;;;;;;;11.78;82.08;99824.66;4999840;28;20074;-60
2022/11/27 09:43:26;;;;;;;15.57;3.35;;;;;;;11.78;81.33;99819.47;4992703;28;20165;-61
2022/11/27 09:45:59;;;;;;;12.40;2.45;;;;;;;11.78;81.90;99830.72;4997432;28;20084;-61
2022/11/27 09:48:37;;;;;;;13.73;2.72;;;;;;;11.76;81.14;99835.03;4992231;28;20064;-60
2022/11/27 09:51:12;;;;;;;17.60;2.53;;;;;;;11.78;81.80;99835.91;4999034;28;20132;-60
2022/11/27 09:53:47;;;;;;;15.18;2.17;;;;;;;11.77;80.83;99839.38;4999296;28;20548;-60
2022/11/27 09:56:17;;;;;;;16.90;3.17;;;;;;;11.77;81.59;99839.38;4996642;28;20069;-61
2022/11/27 09:58:54;;;;;;;19.33;2.65;;;;;;;11.79;81.74;99827.25;4996647;28;20147;-61
2022/11/27 10:01:26;;;;;;;13.23;2.83;;;;;;;11.81;81.54;99846.25;4995463;28;20132;-61
2022/11/27 10:04:08;;;;;;;17.52;2.90;;;;;;;11.82;82.50;99842.78;4990941;28;20064;-61
2022/11/27 10:15:12;;;;;;;23.92;4.35;;;;;;;11.86;81.69;99838.44;5020255;28;20763;-61
2022/11/27 10:17:47;;;;;;;24.77;4.03;;;;;;;11.92;82.27;99837.50;4972934;28;22280;-60
2022/11/27 10:20:27;;;;;;;16.67;3.80;;;;;;;11.93;80.86;99839.22;4962557;28;20042;-61
2022/11/27 10:25:44;;;;;;;15.73;2.13;;;;;;;11.93;81.51;99834.03;5056454;28;20407;-61
2022/11/27 10:31:16;;;;;;;29.02;3.75;;;;;;;12.26;81.10;99834.50;5035861;27;20424;-61
2022/11/27 10:33:52;;;;;;;;;;;;;;;11.94;81.96;99830.53;5034807;28;20045;-60
2022/11/27 10:36:37;;;;;;;27.17;4.47;;;;;;;12.01;82.40;99832.19;5039281;28;19956;-61
2022/11/27 10:39:11;;;;;;;23.02;3.72;;;;;;;12.04;82.18;99847.72;5019659;28;20045;-55
2022/11/27 10:41:50;;;;;;;23.70;3.58;;;;;;;12.05;81.07;99852.03;5023112;28;20042;-46
2022/11/27 10:44:40;;;;;;;20.70;3.15;;;;;;;12.04;81.72;99858.13;5018116;28;20077;-56
2022/11/27 10:47:12;;;;;;;17.52;2.03;;;;;;;12.14;82.03;99853.69;5019770;28;20042;-52
2022/11/27 10:49:40;;;;;;;22.38;2.78;;;;;;;12.23;81.33;99857.94;5021884;28;20847;-54
2022/11/27 10:52:13;;;;;;;20.42;3.85;;;;;;;12.31;81.18;99863.00;5020275;28;20088;-58
2022/11/27 10:54:44;;;;;;;19.60;3.78;;;;;;;12.39;81.74;99858.56;5020320;28;20669;-48
2022/11/27 11:02:45;;;;;;;17.05;1.90;;;;;;;12.66;81.25;99853.88;5101065;27;20385;-51
2022/11/27 11:08:14;;;;;;;20.92;2.13;;;;;;;12.71;81.19;99838.22;5119103;27;20390;-53
2022/11/27 11:10:50;;;;;;;17.48;3.45;;;;;;;12.76;80.87;99833.78;5062088;28;20541;-50
2022/11/27 11:13:21;;;;;;;16.20;2.45;;;;;;;12.78;81.68;99834.66;5059842;28;20505;-51
2022/11/27 11:15:52;;;;;;;21.20;2.47;;;;;;;12.80;81.02;99827.66;5061726;28;20044;-52
2022/11/27 11:18:23;;;;;;;18.55;3.55;;;;;;;12.80;81.59;99832.88;5060758;28;20465;-51
2022/11/27 11:20:53;;;;;;;13.45;2.30;;;;;;;12.78;80.00;99837.25;5050498;28;20045;-50
2022/11/27 11:23:26;;;;;;;26.25;2.92;;;;;;;12.78;80.61;99825.97;5040093;28;20175;-53
2022/11/27 11:25:56;;;;;;;21.15;2.65;;;;;;;12.79;80.31;99814.69;5038832;28;20106;-52
2022/11/27 11:28:22;;;;;;;;;;;;;;;12.65;80.53;99809.72;5038389;28;20636;-51
2022/11/27 11:31:04;;;;;;;23.13;2.45;;;;;;;12.73;81.02;99810.44;5036566;28;19921;-50
2022/11/27 11:33:37;;;;;;;19.00;2.53;;;;;;;12.73;80.90;99810.44;5037918;28;20061;-51
2022/11/27 11:36:10;;;;;;;18.50;1.70;;;;;;;12.72;80.42;99824.34;5053708;28;20064;-52
2022/11/27 11:38:40;;;;;;;22.27;2.58;;;;;;;12.72;80.35;99814.81;5039189;28;20128;-51
2022/11/27 11:41:08;;;;;;;16.40;1.95;;;;;;;12.73;79.94;99815.66;5040657;28;20140;-51
2022/11/27 11:43:36;;;;;;;24.65;3.20;;;;;;;12.77;81.02;99822.50;5041878;28;20049;-52
2022/11/27 11:46:16;;;;;;;17.67;2.28;;;;;;;12.79;80.92;99802.56;5040475;28;20207;-48
2022/11/27 11:48:53;;;;;;;25.27;2.83;;;;;;;12.82;79.36;99784.34;5039957;28;20056;-53
2022/11/27 11:56:51;;;;;;;23.95;3.45;;;;;;;13.20;79.60;99773.28;5075722;27;20399;-52
2022/11/27 11:59:36;;;;;;;20.05;2.45;;;;;;;13.08;79.76;99785.63;5038559;28;20455;-51
2022/11/27 12:02:27;;;;;;;;;;;;;;;13.00;80.22;99777.09;5041529;28;20069;-49
2022/11/27 12:18:55;;;;;;;23.42;2.95;;;;;;;13.01;79.53;99758.03;5030998;27;20399;-49
2022/11/27 12:21:29;;;;;;;;;;;;;;;12.88;79.38;99761.72;5014760;28;20136;-51
2022/11/27 12:43:25;;;;;;;24.38;3.20;;;;;;;12.96;78.95;99728.66;5018240;28;20444;-49
2022/11/27 12:46:01;;;;;;;20.75;2.90;;;;;;;13.02;78.19;99722.47;5007147;28;20675;-51
2022/11/27 12:48:50;;;;;;;16.75;2.33;;;;;;;12.97;78.66;99719.97;5010527;28;20158;-50
2022/11/27 12:54:04;;;;;;;25.58;4.20;;;;;;;13.30;77.40;99712.41;5065985;27;20406;-50
2022/11/27 12:56:38;;;;;;;20.90;3.08;;;;;;;13.14;78.12;99711.00;5033081;28;20129;-51
2022/11/27 12:59:26;;;;;;;25.00;3.72;;;;;;;13.07;77.91;99718.91;5034784;28;20110;-51
2022/11/27 13:04:45;;;;;;;20.67;2.22;;;;;;;13.11;78.44;99707.56;5075790;27;20394;-54
2022/11/27 13:07:19;;;;;;;25.02;3.03;;;;;;;13.15;77.74;99707.50;5021507;27;20045;-52
2022/11/27 13:09:57;;;;;;;23.25;2.65;;;;;;;13.14;78.09;99692.81;5014537;28;20073;-53
2022/11/27 13:12:31;;;;;;;22.88;4.38;;;;;;;13.14;78.45;99695.41;5027702;28;20084;-48
2022/11/27 13:15:02;;;;;;;24.90;4.07;;;;;;;13.14;77.95;99685.00;5036199;28;20103;-49
2022/11/27 13:17:36;;;;;;;21.67;3.13;;;;;;;13.11;78.33;99678.97;5035100;28;20894;-50
2022/11/27 13:20:10;;;;;;;15.77;2.03;;;;;;;13.13;78.03;99688.50;5038178;28;20637;-52